K31 EFRO-EFRO

Flight info

Callsign K31
Flight time 0h 11m
Altitude 2500
Route JERJO SODANKYLA JERJO
Aircraft G115/L-SDGR/C

Departure

Time 2026-04-29 17:14
Airport Rovaniemi Airport (EFRO)

Arrival

Time 2026-04-29 17:26
Airport Rovaniemi Airport (EFRO)
Time Latitude Longitude Altitude Speed Heading
2026-04-29 15:48 66.56742 25.82464 652 ft 0 kts 189°
2026-04-29 15:53 66.56734 25.82466 652 ft 5 kts 159°
2026-04-29 15:53 66.56714 25.82515 651 ft 5 kts 116°
2026-04-29 15:53 66.56706 25.82600 651 ft 4 kts 114°
2026-04-29 15:54 66.56698 25.82631 650 ft 0 kts 125°
2026-04-29 15:55 66.56691 25.82661 651 ft 8 kts 111°
2026-04-29 15:55 66.56726 25.82790 651 ft 10 kts 38°
2026-04-29 15:55 66.56785 25.82905 651 ft 12 kts 37°
2026-04-29 15:56 66.56854 25.83036 648 ft 13 kts 36°
2026-04-29 15:56 66.56923 25.83171 645 ft 11 kts 43°
2026-04-29 15:56 66.56991 25.83272 642 ft 12 kts 352°
2026-04-29 15:56 66.57075 25.83245 642 ft 12 kts 354°
2026-04-29 15:57 66.57157 25.83230 624 ft 12 kts 26°
2026-04-29 15:57 66.57238 25.83245 622 ft 13 kts 351°
2026-04-29 15:57 66.57321 25.83303 616 ft 15 kts 79°
2026-04-29 15:57 66.57309 25.83566 612 ft 16 kts 98°
2026-04-29 15:58 66.57296 25.83816 604 ft 15 kts 97°
2026-04-29 15:58 66.57283 25.84057 603 ft 10 kts 98°
2026-04-29 15:58 66.57276 25.84151 599 ft 3 kts 102°
2026-04-29 15:58 66.57269 25.84204 603 ft 8 kts 120°
2026-04-29 15:59 66.57212 25.84314 601 ft 9 kts 162°
2026-04-29 15:59 66.57162 25.84335 601 ft 3 kts 212°
2026-04-29 15:59 66.57158 25.84327 608 ft 0 kts 219°
2026-04-29 15:59 66.57112 25.84234 607 ft 29 kts 218°
2026-04-29 16:00 66.56850 25.83741 627 ft 58 kts 221°
2026-04-29 16:00 66.56489 25.83082 707 ft 72 kts 224°
2026-04-29 16:00 66.56064 25.82257 861 ft 83 kts 222°
2026-04-29 16:00 66.55599 25.81227 964 ft 94 kts 246°
2026-04-29 16:01 66.55865 25.79757 970 ft 116 kts 329°
2026-04-29 16:01 66.56602 25.78933 1110 ft 118 kts 333°
2026-04-29 16:01 66.57362 25.77968 1106 ft 127 kts 327°
2026-04-29 16:01 66.58100 25.76748 1129 ft 126 kts 321°
2026-04-29 16:02 66.58852 25.75488 1080 ft 133 kts 329°
2026-04-29 16:02 66.59670 25.74442 1019 ft 129 kts 330°
2026-04-29 16:02 66.60456 25.73455 973 ft 121 kts 329°
2026-04-29 16:02 66.61196 25.72527 895 ft 117 kts 327°
2026-04-29 16:03 66.61896 25.71608 882 ft 114 kts 332°
2026-04-29 16:03 66.62637 25.70850 902 ft 115 kts 334°
2026-04-29 16:03 66.63383 25.70118 896 ft 116 kts 333°
2026-04-29 16:03 66.64134 25.69395 892 ft 117 kts 336°
2026-04-29 16:04 66.64888 25.68676 902 ft 116 kts 334°
2026-04-29 16:04 66.65653 25.67898 879 ft 118 kts 335°
2026-04-29 16:04 66.66409 25.67132 919 ft 114 kts 333°
2026-04-29 16:04 66.67146 25.66355 936 ft 116 kts 335°
2026-04-29 16:05 66.67895 25.65551 904 ft 119 kts 335°
2026-04-29 16:05 66.68711 25.65108 864 ft 125 kts
2026-04-29 16:05 66.69587 25.65589 801 ft 131 kts 13°
2026-04-29 16:05 66.70399 25.66398 913 ft 124 kts 19°
2026-04-29 16:06 66.71191 25.67339 921 ft 126 kts 22°
2026-04-29 16:06 66.71952 25.68139 1038 ft 118 kts 18°
2026-04-29 16:06 66.72686 25.69183 998 ft 128 kts 35°
2026-04-29 16:06 66.73102 25.70302 854 ft 128 kts 47°
2026-04-29 16:07 66.73791 25.71538 981 ft 121 kts 23°
2026-04-29 16:07 66.74584 25.72414 1082 ft 128 kts 18°
2026-04-29 16:07 66.75694 25.73706 1108 ft 136 kts 25°
2026-04-29 16:07 66.76512 25.74946 1146 ft 138 kts 27°
2026-04-29 16:08 66.77058 25.75828 1180 ft 138 kts 31°
2026-04-29 16:08 66.77822 25.77307 1181 ft 139 kts 34°
2026-04-29 16:08 66.78548 25.78873 1174 ft 138 kts 33°
2026-04-29 16:08 66.79347 25.80210 1157 ft 139 kts 28°
2026-04-29 16:09 66.80192 25.81500 1147 ft 143 kts 26°
2026-04-29 16:09 66.81084 25.82612 1102 ft 142 kts 20°
2026-04-29 16:09 66.81966 25.83630 1167 ft 138 kts 22°
2026-04-29 16:09 66.82835 25.84575 1211 ft 137 kts 17°
2026-04-29 16:10 66.83734 25.85475 1192 ft 139 kts 17°
2026-04-29 16:10 66.84634 25.86416 1161 ft 141 kts 19°
2026-04-29 16:10 66.85525 25.87358 1186 ft 135 kts 17°
2026-04-29 16:10 66.86391 25.88270 1213 ft 135 kts 21°
2026-04-29 16:11 66.87257 25.89300 1178 ft 137 kts 20°
2026-04-29 16:11 66.88113 25.90402 1156 ft 137 kts 26°
2026-04-29 16:11 66.88954 25.91428 1157 ft 132 kts 20°
2026-04-29 16:11 66.89785 25.92459 1202 ft 134 kts 22°
2026-04-29 16:12 66.90628 25.93508 1185 ft 134 kts 22°
2026-04-29 16:12 66.91456 25.94583 1175 ft 133 kts 24°
2026-04-29 16:12 66.92291 25.95700 1143 ft 136 kts 22°
2026-04-29 16:12 66.93128 25.96802 1162 ft 134 kts 25°
2026-04-29 16:13 66.93940 25.98007 1155 ft 138 kts 25°
2026-04-29 16:13 66.94790 25.99180 1179 ft 139 kts 25°
2026-04-29 16:13 66.95637 26.00310 1188 ft 135 kts 24°
2026-04-29 16:13 66.96451 26.01423 1387 ft 125 kts 26°
2026-04-29 16:14 66.97202 26.02519 1573 ft 126 kts 24°
2026-04-29 16:14 66.97976 26.03648 1641 ft 131 kts 23°
2026-04-29 16:14 66.98785 26.04731 1751 ft 130 kts 22°
2026-04-29 16:14 66.99588 26.05779 1845 ft 130 kts 21°
2026-04-29 16:15 67.00421 26.06758 1895 ft 132 kts 18°
2026-04-29 16:15 67.01264 26.07694 1995 ft 131 kts 20°
2026-04-29 16:15 67.02107 26.08609 2076 ft 132 kts 19°
2026-04-29 16:15 67.02949 26.09549 2094 ft 135 kts 19°
2026-04-29 16:16 67.03825 26.10533 2104 ft 141 kts 21°
2026-04-29 16:16 67.04725 26.11607 2056 ft 143 kts 21°
2026-04-29 16:16 67.05563 26.12794 2167 ft 137 kts 27°
2026-04-29 16:16 67.06409 26.14031 2089 ft 142 kts 27°
2026-04-29 16:17 67.07286 26.15309 1963 ft 146 kts 28°
2026-04-29 16:17 67.08134 26.16595 2025 ft 138 kts 29°
2026-04-29 16:17 67.08958 26.17834 1978 ft 134 kts 27°
2026-04-29 16:17 67.09762 26.18933 1980 ft 128 kts 24°
2026-04-29 16:18 67.10586 26.19812 1934 ft 128 kts 19°
2026-04-29 16:18 67.11429 26.20694 1838 ft 131 kts 21°
2026-04-29 16:18 67.12259 26.21598 1853 ft 127 kts 21°
2026-04-29 16:18 67.13050 26.22478 1873 ft 122 kts 23°
2026-04-29 16:19 67.13804 26.23451 1882 ft 124 kts 26°
2026-04-29 16:19 67.14585 26.24579 1708 ft 133 kts 30°
2026-04-29 16:19 67.15349 26.25823 1657 ft 131 kts 32°
2026-04-29 16:19 67.16076 26.27313 1524 ft 132 kts 40°
2026-04-29 16:20 67.16755 26.28832 1507 ft 128 kts 40°
2026-04-29 16:20 67.17434 26.30309 1470 ft 128 kts 39°
2026-04-29 16:20 67.18140 26.31746 1402 ft 129 kts 37°
2026-04-29 16:20 67.18852 26.33156 1377 ft 127 kts 36°
2026-04-29 16:21 67.19577 26.34376 1342 ft 128 kts 27°
2026-04-29 16:21 67.20368 26.35431 1297 ft 127 kts 27°
2026-04-29 16:21 67.21140 26.36523 1285 ft 126 kts 28°
2026-04-29 16:21 67.21883 26.37691 1293 ft 124 kts 33°
2026-04-29 16:22 67.22616 26.38912 1250 ft 125 kts 32°
2026-04-29 16:22 67.23340 26.40085 1287 ft 120 kts 31°
2026-04-29 16:22 67.24068 26.41210 1246 ft 124 kts 29°
2026-04-29 16:22 67.24830 26.42280 1190 ft 126 kts 26°
2026-04-29 16:23 67.25619 26.43198 1202 ft 122 kts 21°
2026-04-29 16:23 67.26405 26.43991 1207 ft 121 kts 21°
2026-04-29 16:23 67.27134 26.44973 1244 ft 119 kts 40°
2026-04-29 16:23 67.27697 26.46606 1232 ft 121 kts 50°
2026-04-29 16:24 67.28219 26.48297 1246 ft 120 kts 52°
2026-04-29 16:24 67.28727 26.50032 1223 ft 123 kts 53°
2026-04-29 16:24 67.29246 26.51788 1219 ft 121 kts 49°
2026-04-29 16:24 67.29767 26.53455 1227 ft 121 kts 53°
2026-04-29 16:25 67.30226 26.55310 1199 ft 124 kts 58°
2026-04-29 16:25 67.30673 26.57194 1206 ft 123 kts 58°
2026-04-29 16:25 67.31133 26.59074 1184 ft 124 kts 56°
2026-04-29 16:25 67.31686 26.60700 1250 ft 118 kts 27°
2026-04-29 16:26 67.32471 26.61302 1257 ft 121 kts 10°
2026-04-29 16:26 67.33303 26.61669 1243 ft 121 kts
2026-04-29 16:26 67.34138 26.62041 1248 ft 123 kts
2026-04-29 16:26 67.34987 26.62474 1187 ft 126 kts 16°
2026-04-29 16:27 67.35787 26.63506 1116 ft 128 kts 27°
2026-04-29 16:27 67.36572 26.63929 1178 ft 118 kts 347°
2026-04-29 16:27 67.37402 26.63381 958 ft 125 kts 342°
2026-04-29 16:27 67.38188 26.62807 785 ft 107 kts 344°
2026-04-29 16:28 67.38777 26.62404 631 ft 74 kts 344°
2026-04-29 16:28 67.39222 26.62098 611 ft 67 kts 340°
2026-04-29 16:28 67.39740 26.61737 703 ft 84 kts 343°
2026-04-29 16:28 67.40343 26.61335 897 ft 91 kts 342°
2026-04-29 16:29 67.40765 26.60373 1012 ft 99 kts 253°
2026-04-29 16:29 67.40472 26.58707 1083 ft 100 kts 237°
2026-04-29 16:29 67.39844 26.58536 1093 ft 106 kts 161°
2026-04-29 16:29 67.39136 26.59211 1082 ft 109 kts 167°
2026-04-29 16:30 67.38387 26.59662 1070 ft 112 kts 170°
2026-04-29 16:30 67.37622 26.60116 1083 ft 112 kts 167°
2026-04-29 16:30 67.36892 26.60682 1176 ft 104 kts 146°
2026-04-29 16:30 67.36809 26.62491 1146 ft 120 kts 77°
2026-04-29 16:31 67.37318 26.63648 1194 ft 111 kts 341°
2026-04-29 16:31 67.38055 26.62904 886 ft 111 kts 344°
2026-04-29 16:31 67.38715 26.62455 657 ft 82 kts 342°
2026-04-29 16:31 67.39181 26.62132 601 ft 65 kts 344°
2026-04-29 16:32 67.39699 26.61777 679 ft 87 kts 341°
2026-04-29 16:32 67.40299 26.61351 855 ft 94 kts 341°
2026-04-29 16:32 67.40675 26.60282 1066 ft 92 kts 264°
2026-04-29 16:32 67.40564 26.58449 1054 ft 111 kts 255°
2026-04-29 16:33 67.39369 26.57614 1107 ft 120 kts 159°
2026-04-29 16:33 67.38569 26.58280 1122 ft 121 kts 165°
2026-04-29 16:33 67.37774 26.58947 1144 ft 122 kts 163°
2026-04-29 16:34 67.37313 26.60468 1183 ft 125 kts 80°
2026-04-29 16:34 67.37559 26.62679 1151 ft 122 kts 45°
2026-04-29 16:34 67.38307 26.62733 859 ft 100 kts 343°
2026-04-29 16:34 67.38905 26.62317 609 ft 76 kts 344°
2026-04-29 16:35 67.39366 26.62008 616 ft 73 kts 342°
2026-04-29 16:35 67.39924 26.61637 742 ft 87 kts 343°
2026-04-29 16:35 67.40539 26.61201 908 ft 97 kts 342°
2026-04-29 16:35 67.40652 26.59703 963 ft 105 kts 252°
2026-04-29 16:36 67.40387 26.57807 997 ft 113 kts 227°
2026-04-29 16:36 67.39626 26.57949 1043 ft 119 kts 163°
2026-04-29 16:36 67.38821 26.58647 1084 ft 124 kts 164°
2026-04-29 16:36 67.37987 26.59277 1169 ft 124 kts 166°
2026-04-29 16:37 67.37158 26.59924 1222 ft 126 kts 164°
2026-04-29 16:37 67.36894 26.61769 1129 ft 138 kts 66°
2026-04-29 16:37 67.37406 26.63721 1197 ft 125 kts 11°
2026-04-29 16:37 67.37937 26.63260 1027 ft 120 kts 330°
2026-04-29 16:38 67.38781 26.62408 650 ft 82 kts 343°
2026-04-29 16:38 67.39255 26.62083 618 ft 70 kts 341°
2026-04-29 16:38 67.39802 26.61671 687 ft 92 kts 345°
2026-04-29 16:38 67.40451 26.61341 868 ft 96 kts 340°
2026-04-29 16:39 67.40550 26.59764 915 ft 108 kts 255°
2026-04-29 16:39 67.40338 26.57802 983 ft 113 kts 234°
2026-04-29 16:39 67.39600 26.57788 1020 ft 122 kts 164°
2026-04-29 16:39 67.38767 26.58439 1004 ft 128 kts 169°
2026-04-29 16:40 67.37897 26.58941 1009 ft 130 kts 167°
2026-04-29 16:40 67.37065 26.59726 1065 ft 128 kts 128°
2026-04-29 16:40 67.37186 26.62036 947 ft 137 kts 73°
2026-04-29 16:40 67.37860 26.62972 993 ft 114 kts 356°
2026-04-29 16:41 67.38519 26.62586 744 ft 83 kts 343°
2026-04-29 16:41 67.39014 26.62241 601 ft 62 kts 344°
2026-04-29 16:41 67.39440 26.61950 630 ft 74 kts 344°
2026-04-29 16:41 67.40006 26.61570 755 ft 89 kts 342°
2026-04-29 16:42 67.40564 26.60889 916 ft 94 kts 284°
2026-04-29 16:42 67.40416 26.59050 877 ft 114 kts 253°
2026-04-29 16:42 67.40002 26.57494 925 ft 117 kts 173°
2026-04-29 16:42 67.39215 26.58234 922 ft 124 kts 165°
2026-04-29 16:43 67.38412 26.58906 1079 ft 120 kts 162°
2026-04-29 16:43 67.37619 26.59698 1126 ft 125 kts 159°
2026-04-29 16:43 67.37070 26.61160 1071 ft 133 kts 79°
2026-04-29 16:43 67.37424 26.63157 1027 ft 103 kts 13°
2026-04-29 16:44 67.38106 26.62876 815 ft 99 kts 343°
2026-04-29 16:44 67.38707 26.62453 662 ft 77 kts 343°
2026-04-29 16:44 67.39166 26.62138 600 ft 67 kts 342°
2026-04-29 16:44 67.39678 26.61787 689 ft 85 kts 343°
2026-04-29 16:45 67.40285 26.61398 847 ft 97 kts 344°
2026-04-29 16:45 67.40623 26.60262 954 ft 100 kts 259°
2026-04-29 16:45 67.40472 26.58332 960 ft 115 kts 255°
2026-04-29 16:45 67.39872 26.57670 1037 ft 118 kts 165°
2026-04-29 16:46 67.39065 26.58308 1040 ft 126 kts 163°
2026-04-29 16:46 67.38235 26.59058 1093 ft 127 kts 165°
2026-04-29 16:46 67.37394 26.59766 1125 ft 129 kts 162°
2026-04-29 16:46 67.36957 26.61391 1017 ft 137 kts 74°
2026-04-29 16:47 67.37430 26.63184 1049 ft 112 kts 12°
2026-04-29 16:47 67.38181 26.62823 823 ft 107 kts 342°
2026-04-29 16:47 67.38803 26.62386 637 ft 78 kts 343°
2026-04-29 16:47 67.39258 26.62085 615 ft 69 kts 343°
2026-04-29 16:48 67.39791 26.61724 723 ft 83 kts 343°
2026-04-29 16:48 67.40360 26.61334 931 ft 87 kts 333°
2026-04-29 16:48 67.40469 26.59883 986 ft 101 kts 253°
2026-04-29 16:48 67.40228 26.58011 1009 ft 109 kts 228°
2026-04-29 16:49 67.39489 26.58153 1038 ft 119 kts 161°
2026-04-29 16:49 67.38724 26.58982 1125 ft 122 kts 163°
2026-04-29 16:49 67.37869 26.59574 1074 ft 131 kts 167°
2026-04-29 16:49 67.37238 26.60830 1168 ft 129 kts 85°
2026-04-29 16:50 67.37562 26.62830 1136 ft 110 kts 29°
2026-04-29 16:50 67.38274 26.62757 909 ft 100 kts 344°
2026-04-29 16:50 67.38878 26.62340 631 ft 81 kts 344°
2026-04-29 16:50 67.39358 26.62009 627 ft 75 kts 343°
2026-04-29 16:51 67.39942 26.61623 735 ft 93 kts 343°
2026-04-29 16:51 67.40467 26.60870 943 ft 89 kts 271°
2026-04-29 16:51 67.40356 26.59071 922 ft 111 kts 255°
2026-04-29 16:51 67.39955 26.57620 999 ft 113 kts 171°
2026-04-29 16:52 67.39140 26.58175 943 ft 126 kts 165°
2026-04-29 16:52 67.38291 26.58840 980 ft 127 kts 162°
2026-04-29 16:52 67.37530 26.59590 1303 ft 110 kts 158°
2026-04-29 16:52 67.37045 26.60855 1626 ft 103 kts 94°
2026-04-29 16:53 67.37206 26.62698 1800 ft 104 kts 53°
2026-04-29 16:53 67.37815 26.63146 2031 ft 99 kts 350°
2026-04-29 16:53 67.38537 26.62675 999 ft 120 kts 335°
2026-04-29 16:53 67.39270 26.62079 604 ft 87 kts 345°
2026-04-29 16:54 67.39779 26.61724 641 ft 79 kts 342°
2026-04-29 16:54 67.40355 26.61336 804 ft 88 kts 340°
2026-04-29 16:54 67.40733 26.60157 994 ft 93 kts 293°
2026-04-29 16:54 67.41024 26.58565 1164 ft 99 kts 293°
2026-04-29 16:55 67.41338 26.56886 1317 ft 105 kts 292°
2026-04-29 16:55 67.41531 26.55737 1450 ft 106 kts 290°
2026-04-29 16:55 67.41807 26.53928 1619 ft 109 kts 290°
2026-04-29 16:55 67.42191 26.51489 1827 ft 111 kts 291°
2026-04-29 16:56 67.42515 26.49676 1975 ft 110 kts 292°
2026-04-29 16:56 67.42850 26.47848 2033 ft 111 kts 292°
2026-04-29 16:56 67.43157 26.45996 2050 ft 112 kts 287°
2026-04-29 16:56 67.43319 26.44702 2044 ft 115 kts 285°
2026-04-29 16:57 67.43546 26.42677 2050 ft 115 kts 283°
2026-04-29 16:57 67.43694 26.40624 2056 ft 116 kts 270°
2026-04-29 16:57 67.43568 26.38551 2034 ft 117 kts 253°
2026-04-29 16:57 67.43291 26.36552 2020 ft 118 kts 248°
2026-04-29 16:58 67.42954 26.34595 2020 ft 119 kts 243°
2026-04-29 16:58 67.42432 26.32923 2014 ft 120 kts 221°
2026-04-29 16:58 67.41742 26.31711 2017 ft 120 kts 214°
2026-04-29 16:58 67.41027 26.30651 2059 ft 117 kts 209°
2026-04-29 16:59 67.40300 26.29729 2083 ft 117 kts 209°
2026-04-29 16:59 67.39546 26.28797 2049 ft 122 kts 206°
2026-04-29 16:59 67.38751 26.27944 2026 ft 124 kts 201°
2026-04-29 16:59 67.37925 26.27280 1995 ft 123 kts 197°
2026-04-29 17:00 67.37104 26.26780 2050 ft 120 kts 193°
2026-04-29 17:00 67.36294 26.26415 2060 ft 121 kts 191°
2026-04-29 17:00 67.35474 26.25920 2031 ft 123 kts 201°
2026-04-29 17:00 67.34674 26.25139 2022 ft 122 kts 200°
2026-04-29 17:01 67.33872 26.24501 2044 ft 121 kts 197°
2026-04-29 17:01 67.33056 26.23966 2054 ft 121 kts 195°
2026-04-29 17:01 67.32245 26.23356 2047 ft 122 kts 199°
2026-04-29 17:01 67.31441 26.22575 1993 ft 125 kts 205°
2026-04-29 17:02 67.30646 26.21670 1984 ft 125 kts 205°
2026-04-29 17:02 67.29850 26.20791 1978 ft 124 kts 205°
2026-04-29 17:02 67.29051 26.19958 2008 ft 123 kts 201°
2026-04-29 17:02 67.28239 26.19215 1995 ft 124 kts 201°
2026-04-29 17:03 67.27421 26.18458 1970 ft 125 kts 201°
2026-04-29 17:03 67.26606 26.17757 1961 ft 124 kts 198°
2026-04-29 17:03 67.25756 26.17163 1870 ft 128 kts 195°
2026-04-29 17:03 67.24875 26.16666 1780 ft 129 kts 193°
2026-04-29 17:04 67.24009 26.16098 1779 ft 125 kts 198°
2026-04-29 17:04 67.23183 26.15475 1811 ft 121 kts 195°
2026-04-29 17:04 67.22365 26.15057 1842 ft 120 kts 191°
2026-04-29 17:04 67.21535 26.14603 1794 ft 124 kts 197°
2026-04-29 17:05 67.20730 26.13853 1800 ft 122 kts 205°
2026-04-29 17:05 67.19975 26.12974 1859 ft 118 kts 206°
2026-04-29 17:05 67.19214 26.12100 1854 ft 121 kts 203°
2026-04-29 17:05 67.18429 26.11395 1844 ft 123 kts 200°
2026-04-29 17:06 67.17606 26.10690 1791 ft 125 kts 199°
2026-04-29 17:06 67.16791 26.10011 1832 ft 122 kts 201°
2026-04-29 17:06 67.15990 26.09238 1796 ft 124 kts 204°
2026-04-29 17:06 67.15190 26.08396 1784 ft 124 kts 203°
2026-04-29 17:07 67.14397 26.07555 1786 ft 124 kts 203°
2026-04-29 17:07 67.13613 26.06649 1781 ft 123 kts 206°
2026-04-29 17:07 67.12822 26.05671 1693 ft 127 kts 204°
2026-04-29 17:07 67.12011 26.04814 1674 ft 125 kts 204°
2026-04-29 17:08 67.11213 26.03946 1628 ft 126 kts 204°
2026-04-29 17:08 67.10399 26.03076 1557 ft 128 kts 203°
2026-04-29 17:08 67.09577 26.02231 1551 ft 125 kts 204°
2026-04-29 17:08 67.08781 26.01405 1590 ft 122 kts 203°
2026-04-29 17:09 67.07983 26.00661 1608 ft 122 kts 202°
2026-04-29 17:09 67.07172 26.00036 1590 ft 122 kts 200°
2026-04-29 17:09 67.06356 25.99484 1522 ft 124 kts 198°
2026-04-29 17:09 67.05504 25.98999 1449 ft 125 kts 195°
2026-04-29 17:10 67.04670 25.98539 1537 ft 119 kts 200°
2026-04-29 17:10 67.03864 25.97876 1503 ft 122 kts 204°
2026-04-29 17:10 67.03063 25.97134 1492 ft 123 kts 203°
2026-04-29 17:10 67.02252 25.96445 1492 ft 121 kts 203°
2026-04-29 17:11 67.01451 25.95804 1513 ft 119 kts 200°
2026-04-29 17:11 67.00617 25.95220 1366 ft 130 kts 198°
2026-04-29 17:11 66.99725 25.94555 1233 ft 135 kts 199°
2026-04-29 17:11 66.98848 25.93934 1211 ft 124 kts 199°
2026-04-29 17:12 66.98033 25.93388 1215 ft 121 kts 197°
2026-04-29 17:12 66.97206 25.92859 1219 ft 124 kts 197°
2026-04-29 17:12 66.96376 25.92399 1231 ft 123 kts 194°
2026-04-29 17:12 66.95809 25.92105 1223 ft 123 kts 197°
2026-04-29 17:13 66.94743 25.91331 1244 ft 119 kts 200°
2026-04-29 17:13 66.93917 25.90808 1199 ft 125 kts 198°
2026-04-29 17:13 66.93096 25.90121 1193 ft 124 kts 202°
2026-04-29 17:13 66.92286 25.89315 1180 ft 126 kts 203°
2026-04-29 17:14 66.91446 25.88618 1194 ft 126 kts 201°
2026-04-29 17:14 66.90635 25.87816 1248 ft 125 kts 204°
2026-04-29 17:14 66.89806 25.86967 1198 ft 129 kts 206°
2026-04-29 17:14 66.88993 25.85991 1167 ft 128 kts 208°
2026-04-29 17:15 66.88174 25.85115 1189 ft 127 kts 204°
2026-04-29 17:15 66.87350 25.84278 1197 ft 128 kts 203°
2026-04-29 17:15 66.86497 25.83508 1149 ft 132 kts 203°
2026-04-29 17:15 66.85635 25.82700 1095 ft 132 kts 202°
2026-04-29 17:16 66.84795 25.81923 1116 ft 130 kts 205°
2026-04-29 17:16 66.83968 25.81046 1160 ft 127 kts 206°
2026-04-29 17:16 66.83155 25.80112 1164 ft 130 kts 207°
2026-04-29 17:16 66.82326 25.79161 1189 ft 131 kts 206°
2026-04-29 17:17 66.81486 25.78250 1179 ft 132 kts 205°
2026-04-29 17:17 66.80640 25.77369 1183 ft 131 kts 205°
2026-04-29 17:17 66.79789 25.76482 1169 ft 133 kts 205°
2026-04-29 17:17 66.78939 25.75516 1104 ft 134 kts 207°
2026-04-29 17:18 66.78117 25.74456 1130 ft 129 kts 210°
2026-04-29 17:18 66.77321 25.73427 1111 ft 129 kts 210°
2026-04-29 17:18 66.76544 25.72392 1113 ft 126 kts 213°
2026-04-29 17:18 66.75766 25.71348 1083 ft 127 kts 212°
2026-04-29 17:19 66.74974 25.70316 1053 ft 128 kts 209°
2026-04-29 17:19 66.74173 25.69350 1083 ft 127 kts 210°
2026-04-29 17:19 66.73427 25.68224 1127 ft 122 kts 216°
2026-04-29 17:19 66.72688 25.67056 1112 ft 128 kts 212°
2026-04-29 17:20 66.71871 25.66167 1076 ft 132 kts 189°
2026-04-29 17:20 66.70959 25.66039 1080 ft 132 kts 187°
2026-04-29 17:20 66.70040 25.65844 1011 ft 129 kts 187°
2026-04-29 17:20 66.69158 25.65721 1050 ft 128 kts 185°
2026-04-29 17:21 66.68268 25.65900 1121 ft 130 kts 165°
2026-04-29 17:21 66.67562 25.67439 1089 ft 141 kts 132°
2026-04-29 17:21 66.66978 25.69480 1045 ft 144 kts 128°
2026-04-29 17:21 66.66441 25.71581 1044 ft 140 kts 124°
2026-04-29 17:22 66.65959 25.73667 1079 ft 137 kts 123°
2026-04-29 17:22 66.65426 25.75679 1089 ft 140 kts 127°
2026-04-29 17:22 66.64883 25.77725 1074 ft 141 kts 128°
2026-04-29 17:22 66.64300 25.79691 1034 ft 140 kts 130°
2026-04-29 17:23 66.63702 25.81638 1019 ft 138 kts 128°
2026-04-29 17:23 66.63167 25.83597 1036 ft 140 kts 126°
2026-04-29 17:23 66.62664 25.85698 1077 ft 138 kts 122°
2026-04-29 17:23 66.62193 25.87854 1082 ft 143 kts 121°
2026-04-29 17:24 66.61645 25.89956 1032 ft 144 kts 141°
2026-04-29 17:24 66.60736 25.90683 881 ft 138 kts 193°
2026-04-29 17:24 66.59931 25.89580 811 ft 128 kts 219°
2026-04-29 17:24 66.59256 25.88284 815 ft 118 kts 216°
2026-04-29 17:25 66.58608 25.87055 803 ft 109 kts 218°
2026-04-29 17:25 66.58089 25.86096 771 ft 78 kts 219°
2026-04-29 17:25 66.57726 25.85423 680 ft 59 kts 220°
2026-04-29 17:25 66.57407 25.84806 613 ft 56 kts 220°
2026-04-29 17:26 66.57113 25.84232 619 ft 47 kts 218°
2026-04-29 17:26 66.56897 25.83825 620 ft 31 kts 216°
2026-04-29 17:26 66.56796 25.83638 625 ft 18 kts 217°
2026-04-29 17:26 66.56714 25.83468 628 ft 12 kts 245°
2026-04-29 17:27 66.56744 25.83361 629 ft 9 kts 349°
2026-04-29 17:27 66.56800 25.83339 631 ft 11 kts 348°
2026-04-29 17:27 66.56894 25.83307 636 ft 13 kts 346°
2026-04-29 17:27 66.56916 25.83150 642 ft 12 kts 222°
2026-04-29 17:28 66.56840 25.83004 648 ft 15 kts 217°
2026-04-29 17:28 66.56754 25.82841 649 ft 16 kts 216°
2026-04-29 17:28 66.56694 25.82702 649 ft 10 kts 262°
2026-04-29 17:28 66.56685 25.82522 649 ft 13 kts 244°
2026-04-29 17:29 66.56691 25.82432 647 ft 0 kts 37°
2026-04-29 17:29 66.56692 25.82435 648 ft 0 kts 72°